sensor_id;sensor_type;location;lat;lon;timestamp;temperature;humidity
5055;DHT22;13829;48.990;8.346;2023-02-28T00:01:20;0.70;98.30
5055;DHT22;13829;48.990;8.346;2023-02-28T00:03:48;0.60;98.40
5055;DHT22;13829;48.990;8.346;2023-02-28T00:06:15;0.70;98.30
5055;DHT22;13829;48.990;8.346;2023-02-28T00:08:42;0.60;98.40
5055;DHT22;13829;48.990;8.346;2023-02-28T00:11:12;0.60;98.50
5055;DHT22;13829;48.990;8.346;2023-02-28T00:13:42;0.60;98.60
5055;DHT22;13829;48.990;8.346;2023-02-28T00:16:13;0.60;98.90
5055;DHT22;13829;48.990;8.346;2023-02-28T00:18:45;0.60;98.60
5055;DHT22;13829;48.990;8.346;2023-02-28T00:21:15;0.60;98.70
5055;DHT22;13829;48.990;8.346;2023-02-28T00:23:42;0.60;98.80
5055;DHT22;13829;48.990;8.346;2023-02-28T00:26:11;0.50;98.80
5055;DHT22;13829;48.990;8.346;2023-02-28T00:28:38;0.50;99.00
5055;DHT22;13829;48.990;8.346;2023-02-28T00:31:05;0.50;98.90
5055;DHT22;13829;48.990;8.346;2023-02-28T00:33:32;0.50;99.00
5055;DHT22;13829;48.990;8.346;2023-02-28T00:36:04;0.50;99.00
5055;DHT22;13829;48.990;8.346;2023-02-28T00:38:33;0.50;99.00
5055;DHT22;13829;48.990;8.346;2023-02-28T00:41:00;0.50;99.00
5055;DHT22;13829;48.990;8.346;2023-02-28T00:43:32;0.50;99.00
5055;DHT22;13829;48.990;8.346;2023-02-28T00:45:59;0.50;99.10
5055;DHT22;13829;48.990;8.346;2023-02-28T00:48:27;0.50;99.10
5055;DHT22;13829;48.990;8.346;2023-02-28T00:50:54;0.50;99.10
5055;DHT22;13829;48.990;8.346;2023-02-28T00:53:21;0.60;99.10
5055;DHT22;13829;48.990;8.346;2023-02-28T00:55:49;0.50;99.00
5055;DHT22;13829;48.990;8.346;2023-02-28T00:58:16;0.50;99.10
5055;DHT22;13829;48.990;8.346;2023-02-28T01:00:44;0.50;99.20
5055;DHT22;13829;48.990;8.346;2023-02-28T01:03:15;0.50;99.30
5055;DHT22;13829;48.990;8.346;2023-02-28T01:05:43;0.50;99.30
5055;DHT22;13829;48.990;8.346;2023-02-28T01:08:10;0.40;99.30
5055;DHT22;13829;48.990;8.346;2023-02-28T01:10:37;0.50;99.30
5055;DHT22;13829;48.990;8.346;2023-02-28T01:13:04;0.40;99.30
5055;DHT22;13829;48.990;8.346;2023-02-28T01:15:32;0.40;99.30
5055;DHT22;13829;48.990;8.346;2023-02-28T01:18:00;0.40;99.40
5055;DHT22;13829;48.990;8.346;2023-02-28T01:20:27;0.50;99.30
5055;DHT22;13829;48.990;8.346;2023-02-28T01:22:54;0.50;99.30
5055;DHT22;13829;48.990;8.346;2023-02-28T01:25:21;0.60;99.30
5055;DHT22;13829;48.990;8.346;2023-02-28T01:27:48;0.40;99.40
5055;DHT22;13829;48.990;8.346;2023-02-28T01:30:17;0.40;99.50
5055;DHT22;13829;48.990;8.346;2023-02-28T01:32:44;0.40;99.70
5055;DHT22;13829;48.990;8.346;2023-02-28T01:35:12;0.40;99.60
5055;DHT22;13829;48.990;8.346;2023-02-28T01:37:39;0.40;99.70
5055;DHT22;13829;48.990;8.346;2023-02-28T01:40:07;0.40;99.60
5055;DHT22;13829;48.990;8.346;2023-02-28T01:42:36;0.30;99.90
5055;DHT22;13829;48.990;8.346;2023-02-28T01:45:18;0.30;99.90
5055;DHT22;13829;48.990;8.346;2023-02-28T01:47:55;0.20;99.90
5055;DHT22;13829;48.990;8.346;2023-02-28T01:50:30;0.20;99.90
5055;DHT22;13829;48.990;8.346;2023-02-28T01:53:05;0.20;99.90
5055;DHT22;13829;48.990;8.346;2023-02-28T01:55:36;0.20;99.90
5055;DHT22;13829;48.990;8.346;2023-02-28T01:58:05;0.10;99.90
5055;DHT22;13829;48.990;8.346;2023-02-28T02:00:35;0.50;99.90
5055;DHT22;13829;48.990;8.346;2023-02-28T02:03:07;0.20;99.90
5055;DHT22;13829;48.990;8.346;2023-02-28T02:05:40;0.20;99.90
5055;DHT22;13829;48.990;8.346;2023-02-28T02:08:15;0.10;99.90
5055;DHT22;13829;48.990;8.346;2023-02-28T02:10:47;0.10;99.90
5055;DHT22;13829;48.990;8.346;2023-02-28T02:13:34;0.10;99.90
5055;DHT22;13829;48.990;8.346;2023-02-28T02:16:27;0.00;99.90
5055;DHT22;13829;48.990;8.346;2023-02-28T02:19:18;0.10;99.90
5055;DHT22;13829;48.990;8.346;2023-02-28T02:22:26;0.00;99.90
5055;DHT22;13829;48.990;8.346;2023-02-28T02:25:15;0.00;99.90
5055;DHT22;13829;48.990;8.346;2023-02-28T02:28:17;0.00;99.90
5055;DHT22;13829;48.990;8.346;2023-02-28T02:31:10;0.00;99.90
5055;DHT22;13829;48.990;8.346;2023-02-28T02:34:35;0.00;99.90
5055;DHT22;13829;48.990;8.346;2023-02-28T02:37:17;0.00;99.90
5055;DHT22;13829;48.990;8.346;2023-02-28T02:40:02;-0.10;99.90
5055;DHT22;13829;48.990;8.346;2023-02-28T02:42:40;0.00;99.90
5055;DHT22;13829;48.990;8.346;2023-02-28T02:45:15;0.00;99.90
5055;DHT22;13829;48.990;8.346;2023-02-28T02:47:46;0.00;99.90
5055;DHT22;13829;48.990;8.346;2023-02-28T02:50:20;0.10;99.90
5055;DHT22;13829;48.990;8.346;2023-02-28T02:52:54;0.00;99.90
5055;DHT22;13829;48.990;8.346;2023-02-28T02:55:24;0.00;99.90
5055;DHT22;13829;48.990;8.346;2023-02-28T02:57:54;-0.10;99.90
5055;DHT22;13829;48.990;8.346;2023-02-28T03:00:29;-0.10;99.90
5055;DHT22;13829;48.990;8.346;2023-02-28T03:03:00;-0.10;99.90
5055;DHT22;13829;48.990;8.346;2023-02-28T03:05:34;-0.10;99.90
5055;DHT22;13829;48.990;8.346;2023-02-28T03:08:06;-0.10;99.90
5055;DHT22;13829;48.990;8.346;2023-02-28T03:10:36;-0.10;99.90
5055;DHT22;13829;48.990;8.346;2023-02-28T03:13:36;0.00;99.90
5055;DHT22;13829;48.990;8.346;2023-02-28T03:16:40;-0.10;99.90
5055;DHT22;13829;48.990;8.346;2023-02-28T03:19:34;0.10;99.90
5055;DHT22;13829;48.990;8.346;2023-02-28T03:22:23;0.10;99.90
5055;DHT22;13829;48.990;8.346;2023-02-28T03:25:08;0.10;99.90
5055;DHT22;13829;48.990;8.346;2023-02-28T03:27:57;0.20;99.90
5055;DHT22;13829;48.990;8.346;2023-02-28T03:30:35;0.20;99.90
5055;DHT22;13829;48.990;8.346;2023-02-28T03:33:10;0.20;99.90
5055;DHT22;13829;48.990;8.346;2023-02-28T03:35:43;0.20;99.90
5055;DHT22;13829;48.990;8.346;2023-02-28T03:38:20;0.20;99.90
5055;DHT22;13829;48.990;8.346;2023-02-28T03:40:55;0.20;99.90
5055;DHT22;13829;48.990;8.346;2023-02-28T03:43:29;0.30;99.90
5055;DHT22;13829;48.990;8.346;2023-02-28T03:46:04;0.30;99.90
5055;DHT22;13829;48.990;8.346;2023-02-28T03:48:39;0.30;99.90
5055;DHT22;13829;48.990;8.346;2023-02-28T03:51:13;0.30;99.90
5055;DHT22;13829;48.990;8.346;2023-02-28T03:53:45;0.30;99.90
5055;DHT22;13829;48.990;8.346;2023-02-28T03:56:20;0.30;99.90
5055;DHT22;13829;48.990;8.346;2023-02-28T03:58:54;0.30;99.90
5055;DHT22;13829;48.990;8.346;2023-02-28T04:01:30;0.30;99.90
5055;DHT22;13829;48.990;8.346;2023-02-28T04:03:59;0.30;99.90
5055;DHT22;13829;48.990;8.346;2023-02-28T04:06:27;0.30;99.90
5055;DHT22;13829;48.990;8.346;2023-02-28T04:08:59;0.30;99.90
5055;DHT22;13829;48.990;8.346;2023-02-28T04:11:31;0.30;99.90
5055;DHT22;13829;48.990;8.346;2023-02-28T04:14:00;0.30;99.90
5055;DHT22;13829;48.990;8.346;2023-02-28T04:16:27;0.30;99.90
5055;DHT22;13829;48.990;8.346;2023-02-28T04:18:54;0.30;99.90
5055;DHT22;13829;48.990;8.346;2023-02-28T04:21:27;0.30;99.90
5055;DHT22;13829;48.990;8.346;2023-02-28T04:23:54;0.30;99.90
5055;DHT22;13829;48.990;8.346;2023-02-28T04:26:28;0.30;99.90
5055;DHT22;13829;48.990;8.346;2023-02-28T04:28:56;0.40;99.90
5055;DHT22;13829;48.990;8.346;2023-02-28T04:31:23;0.40;99.90
5055;DHT22;13829;48.990;8.346;2023-02-28T04:33:50;0.40;99.90
5055;DHT22;13829;48.990;8.346;2023-02-28T04:36:18;0.40;99.90
5055;DHT22;13829;48.990;8.346;2023-02-28T04:38:45;0.40;99.90
5055;DHT22;13829;48.990;8.346;2023-02-28T04:41:13;0.40;99.90
5055;DHT22;13829;48.990;8.346;2023-02-28T04:43:41;0.40;99.90
5055;DHT22;13829;48.990;8.346;2023-02-28T04:46:08;0.50;99.90
5055;DHT22;13829;48.990;8.346;2023-02-28T04:48:38;0.50;99.90
5055;DHT22;13829;48.990;8.346;2023-02-28T04:51:08;0.40;99.90
5055;DHT22;13829;48.990;8.346;2023-02-28T04:53:37;0.30;99.90
5055;DHT22;13829;48.990;8.346;2023-02-28T04:56:06;0.30;99.90
5055;DHT22;13829;48.990;8.346;2023-02-28T04:58:34;0.30;99.90
5055;DHT22;13829;48.990;8.346;2023-02-28T05:01:04;0.20;99.90
5055;DHT22;13829;48.990;8.346;2023-02-28T05:03:38;0.30;99.90
5055;DHT22;13829;48.990;8.346;2023-02-28T05:06:06;0.20;99.90
5055;DHT22;13829;48.990;8.346;2023-02-28T05:08:33;0.20;99.90
5055;DHT22;13829;48.990;8.346;2023-02-28T05:11:00;0.10;99.90
5055;DHT22;13829;48.990;8.346;2023-02-28T05:13:28;0.20;99.90
5055;DHT22;13829;48.990;8.346;2023-02-28T05:15:55;0.20;99.90
5055;DHT22;13829;48.990;8.346;2023-02-28T05:18:23;0.20;99.90
5055;DHT22;13829;48.990;8.346;2023-02-28T05:20:50;0.20;99.90
5055;DHT22;13829;48.990;8.346;2023-02-28T05:23:17;0.20;99.90
5055;DHT22;13829;48.990;8.346;2023-02-28T05:25:48;0.20;99.90
5055;DHT22;13829;48.990;8.346;2023-02-28T05:28:17;0.10;99.90
5055;DHT22;13829;48.990;8.346;2023-02-28T05:30:44;0.00;99.90
5055;DHT22;13829;48.990;8.346;2023-02-28T05:33:12;0.00;99.90
5055;DHT22;13829;48.990;8.346;2023-02-28T05:35:41;0.10;99.90
5055;DHT22;13829;48.990;8.346;2023-02-28T05:38:09;0.10;99.90
5055;DHT22;13829;48.990;8.346;2023-02-28T05:40:38;0.20;99.90
5055;DHT22;13829;48.990;8.346;2023-02-28T05:43:05;0.10;99.90
5055;DHT22;13829;48.990;8.346;2023-02-28T05:45:37;0.20;99.90
5055;DHT22;13829;48.990;8.346;2023-02-28T05:48:04;0.20;99.90
5055;DHT22;13829;48.990;8.346;2023-02-28T05:50:31;0.20;99.90
5055;DHT22;13829;48.990;8.346;2023-02-28T05:52:59;0.20;99.90
5055;DHT22;13829;48.990;8.346;2023-02-28T05:55:26;0.30;99.90
5055;DHT22;13829;48.990;8.346;2023-02-28T05:57:53;0.30;99.90
5055;DHT22;13829;48.990;8.346;2023-02-28T06:00:21;0.30;99.90
5055;DHT22;13829;48.990;8.346;2023-02-28T06:02:49;0.20;99.90
5055;DHT22;13829;48.990;8.346;2023-02-28T06:05:17;0.30;99.90
5055;DHT22;13829;48.990;8.346;2023-02-28T06:07:44;0.20;99.90
5055;DHT22;13829;48.990;8.346;2023-02-28T06:10:13;0.30;99.90
5055;DHT22;13829;48.990;8.346;2023-02-28T06:12:41;0.30;99.90
5055;DHT22;13829;48.990;8.346;2023-02-28T06:15:12;0.30;99.90
5055;DHT22;13829;48.990;8.346;2023-02-28T06:17:40;0.30;99.90
5055;DHT22;13829;48.990;8.346;2023-02-28T06:20:08;0.30;99.90
5055;DHT22;13829;48.990;8.346;2023-02-28T06:22:38;0.30;99.90
5055;DHT22;13829;48.990;8.346;2023-02-28T06:25:07;0.40;99.90
5055;DHT22;13829;48.990;8.346;2023-02-28T06:27:36;0.40;99.90
5055;DHT22;13829;48.990;8.346;2023-02-28T06:30:03;0.40;99.90
5055;DHT22;13829;48.990;8.346;2023-02-28T06:32:31;0.40;99.90
5055;DHT22;13829;48.990;8.346;2023-02-28T06:34:58;0.50;99.90
5055;DHT22;13829;48.990;8.346;2023-02-28T06:37:25;0.50;99.90
5055;DHT22;13829;48.990;8.346;2023-02-28T06:39:53;0.50;99.90
5055;DHT22;13829;48.990;8.346;2023-02-28T06:42:21;0.60;99.90
5055;DHT22;13829;48.990;8.346;2023-02-28T06:44:51;0.60;99.90
5055;DHT22;13829;48.990;8.346;2023-02-28T06:47:18;0.70;99.90
5055;DHT22;13829;48.990;8.346;2023-02-28T06:49:45;0.60;99.90
5055;DHT22;13829;48.990;8.346;2023-02-28T06:52:12;0.70;99.90
5055;DHT22;13829;48.990;8.346;2023-02-28T06:54:39;0.70;99.90
5055;DHT22;13829;48.990;8.346;2023-02-28T06:57:07;0.80;99.90
5055;DHT22;13829;48.990;8.346;2023-02-28T06:59:34;0.90;99.90
5055;DHT22;13829;48.990;8.346;2023-02-28T07:02:03;0.90;99.90
5055;DHT22;13829;48.990;8.346;2023-02-28T07:04:31;1.00;99.90
5055;DHT22;13829;48.990;8.346;2023-02-28T07:06:58;0.90;99.90
5055;DHT22;13829;48.990;8.346;2023-02-28T07:09:25;0.90;99.90
5055;DHT22;13829;48.990;8.346;2023-02-28T07:11:55;1.00;99.90
5055;DHT22;13829;48.990;8.346;2023-02-28T07:14:22;1.00;99.90
5055;DHT22;13829;48.990;8.346;2023-02-28T07:16:49;1.00;99.90
5055;DHT22;13829;48.990;8.346;2023-02-28T07:19:17;1.00;99.90
5055;DHT22;13829;48.990;8.346;2023-02-28T07:21:44;1.00;99.90
5055;DHT22;13829;48.990;8.346;2023-02-28T07:24:11;1.00;99.90
5055;DHT22;13829;48.990;8.346;2023-02-28T07:26:41;1.00;99.90
5055;DHT22;13829;48.990;8.346;2023-02-28T07:29:08;1.00;99.90
5055;DHT22;13829;48.990;8.346;2023-02-28T07:31:35;1.00;99.90
5055;DHT22;13829;48.990;8.346;2023-02-28T07:34:02;1.00;99.90
5055;DHT22;13829;48.990;8.346;2023-02-28T07:36:31;1.00;99.90
5055;DHT22;13829;48.990;8.346;2023-02-28T07:38:58;1.00;99.90
5055;DHT22;13829;48.990;8.346;2023-02-28T07:41:25;1.10;99.90
5055;DHT22;13829;48.990;8.346;2023-02-28T07:43:53;1.10;99.90
5055;DHT22;13829;48.990;8.346;2023-02-28T07:46:20;1.20;99.90
5055;DHT22;13829;48.990;8.346;2023-02-28T07:48:48;1.20;99.90
5055;DHT22;13829;48.990;8.346;2023-02-28T07:51:15;1.30;99.90
5055;DHT22;13829;48.990;8.346;2023-02-28T07:53:43;1.30;99.90
5055;DHT22;13829;48.990;8.346;2023-02-28T07:56:10;1.30;99.80
5055;DHT22;13829;48.990;8.346;2023-02-28T07:58:37;1.30;99.80
5055;DHT22;13829;48.990;8.346;2023-02-28T08:01:07;1.30;99.70
5055;DHT22;13829;48.990;8.346;2023-02-28T08:03:36;1.30;99.70
5055;DHT22;13829;48.990;8.346;2023-02-28T08:06:04;1.30;99.90
5055;DHT22;13829;48.990;8.346;2023-02-28T08:08:32;1.30;99.80
5055;DHT22;13829;48.990;8.346;2023-02-28T08:11:01;1.30;99.80
5055;DHT22;13829;48.990;8.346;2023-02-28T08:13:29;1.30;99.80
5055;DHT22;13829;48.990;8.346;2023-02-28T08:15:56;1.40;99.60
5055;DHT22;13829;48.990;8.346;2023-02-28T08:18:24;1.50;99.70
5055;DHT22;13829;48.990;8.346;2023-02-28T08:20:50;1.50;99.50
5055;DHT22;13829;48.990;8.346;2023-02-28T08:23:17;1.50;99.50
5055;DHT22;13829;48.990;8.346;2023-02-28T08:25:45;1.50;99.20
5055;DHT22;13829;48.990;8.346;2023-02-28T08:28:20;1.50;99.10
5055;DHT22;13829;48.990;8.346;2023-02-28T08:30:47;1.50;99.20
5055;DHT22;13829;48.990;8.346;2023-02-28T08:33:14;1.60;99.00
5055;DHT22;13829;48.990;8.346;2023-02-28T08:35:41;1.60;99.20
5055;DHT22;13829;48.990;8.346;2023-02-28T08:38:08;1.70;98.80
5055;DHT22;13829;48.990;8.346;2023-02-28T08:40:35;1.80;98.70
5055;DHT22;13829;48.990;8.346;2023-02-28T08:43:02;1.80;98.60
5055;DHT22;13829;48.990;8.346;2023-02-28T08:45:30;1.70;98.60
5055;DHT22;13829;48.990;8.346;2023-02-28T08:47:57;1.80;98.70
5055;DHT22;13829;48.990;8.346;2023-02-28T08:50:24;1.90;98.60
5055;DHT22;13829;48.990;8.346;2023-02-28T08:52:51;1.90;98.40
5055;DHT22;13829;48.990;8.346;2023-02-28T08:55:18;1.90;98.60
5055;DHT22;13829;48.990;8.346;2023-02-28T08:57:45;2.00;98.30
5055;DHT22;13829;48.990;8.346;2023-02-28T09:00:13;2.00;98.30
5055;DHT22;13829;48.990;8.346;2023-02-28T09:02:41;2.10;98.20
5055;DHT22;13829;48.990;8.346;2023-02-28T09:05:09;2.20;97.90
5055;DHT22;13829;48.990;8.346;2023-02-28T09:07:36;2.40;97.80
5055;DHT22;13829;48.990;8.346;2023-02-28T09:10:04;2.40;97.50
5055;DHT22;13829;48.990;8.346;2023-02-28T09:12:33;2.50;97.60
5055;DHT22;13829;48.990;8.346;2023-02-28T09:15:01;2.60;97.20
5055;DHT22;13829;48.990;8.346;2023-02-28T09:17:28;2.60;97.30
5055;DHT22;13829;48.990;8.346;2023-02-28T09:19:57;2.70;96.90
5055;DHT22;13829;48.990;8.346;2023-02-28T09:22:24;2.70;96.90
5055;DHT22;13829;48.990;8.346;2023-02-28T09:24:51;2.80;96.70
5055;DHT22;13829;48.990;8.346;2023-02-28T09:27:17;2.80;96.70
5055;DHT22;13829;48.990;8.346;2023-02-28T09:29:44;2.90;96.50
5055;DHT22;13829;48.990;8.346;2023-02-28T09:32:12;2.80;96.30
5055;DHT22;13829;48.990;8.346;2023-02-28T09:34:38;2.80;96.30
5055;DHT22;13829;48.990;8.346;2023-02-28T09:37:07;2.90;96.20
5055;DHT22;13829;48.990;8.346;2023-02-28T09:39:34;2.90;96.30
5055;DHT22;13829;48.990;8.346;2023-02-28T09:42:02;3.00;96.00
5055;DHT22;13829;48.990;8.346;2023-02-28T09:44:33;3.10;95.50
5055;DHT22;13829;48.990;8.346;2023-02-28T09:47:10;2.90;95.90
5055;DHT22;13829;48.990;8.346;2023-02-28T09:49:46;3.00;95.60
5055;DHT22;13829;48.990;8.346;2023-02-28T09:52:18;2.90;96.00
5055;DHT22;13829;48.990;8.346;2023-02-28T09:54:46;3.20;96.00
5055;DHT22;13829;48.990;8.346;2023-02-28T09:57:19;3.50;95.20
5055;DHT22;13829;48.990;8.346;2023-02-28T10:00:05;3.40;94.60
5055;DHT22;13829;48.990;8.346;2023-02-28T10:03:05;3.40;95.20
5055;DHT22;13829;48.990;8.346;2023-02-28T10:05:49;3.50;94.90
5055;DHT22;13829;48.990;8.346;2023-02-28T10:08:25;3.60;94.70
5055;DHT22;13829;48.990;8.346;2023-02-28T10:10:57;3.80;94.10
5055;DHT22;13829;48.990;8.346;2023-02-28T10:13:31;4.00;93.80
5055;DHT22;13829;48.990;8.346;2023-02-28T10:16:05;4.30;93.80
5055;DHT22;13829;48.990;8.346;2023-02-28T10:18:41;4.60;93.30
5055;DHT22;13829;48.990;8.346;2023-02-28T10:21:19;4.80;93.00
5055;DHT22;13829;48.990;8.346;2023-02-28T10:23:59;4.60;91.70
5055;DHT22;13829;48.990;8.346;2023-02-28T10:26:32;4.20;92.10
5055;DHT22;13829;48.990;8.346;2023-02-28T10:28:59;4.20;92.90
5055;DHT22;13829;48.990;8.346;2023-02-28T10:31:27;4.20;92.70
5055;DHT22;13829;48.990;8.346;2023-02-28T10:33:55;4.10;92.60
5055;DHT22;13829;48.990;8.346;2023-02-28T10:36:22;3.80;92.80
5055;DHT22;13829;48.990;8.346;2023-02-28T10:38:49;3.90;93.10
5055;DHT22;13829;48.990;8.346;2023-02-28T10:41:27;3.80;93.40
5055;DHT22;13829;48.990;8.346;2023-02-28T10:44:16;3.80;93.20
5055;DHT22;13829;48.990;8.346;2023-02-28T10:46:47;3.70;93.30
5055;DHT22;13829;48.990;8.346;2023-02-28T10:49:19;3.80;93.60
5055;DHT22;13829;48.990;8.346;2023-02-28T10:51:51;3.80;93.70
5055;DHT22;13829;48.990;8.346;2023-02-28T10:54:22;4.10;93.20
5055;DHT22;13829;48.990;8.346;2023-02-28T10:57:16;4.20;93.00
5055;DHT22;13829;48.990;8.346;2023-02-28T10:59:45;4.40;92.90
5055;DHT22;13829;48.990;8.346;2023-02-28T11:02:30;4.20;92.90
5055;DHT22;13829;48.990;8.346;2023-02-28T11:04:59;4.00;93.00
5055;DHT22;13829;48.990;8.346;2023-02-28T11:07:27;3.90;93.20
5055;DHT22;13829;48.990;8.346;2023-02-28T11:09:57;3.90;93.10
5055;DHT22;13829;48.990;8.346;2023-02-28T11:12:28;3.90;93.10
5055;DHT22;13829;48.990;8.346;2023-02-28T11:15:01;3.90;93.10
5055;DHT22;13829;48.990;8.346;2023-02-28T11:17:32;3.80;93.10
5055;DHT22;13829;48.990;8.346;2023-02-28T11:20:02;3.80;93.10
5055;DHT22;13829;48.990;8.346;2023-02-28T11:22:36;3.80;93.20
5055;DHT22;13829;48.990;8.346;2023-02-28T11:25:08;3.80;93.40
5055;DHT22;13829;48.990;8.346;2023-02-28T11:27:47;3.90;93.30
5055;DHT22;13829;48.990;8.346;2023-02-28T11:30:31;4.00;92.90
5055;DHT22;13829;48.990;8.346;2023-02-28T11:33:00;4.10;92.70
5055;DHT22;13829;48.990;8.346;2023-02-28T11:35:45;4.10;92.90
5055;DHT22;13829;48.990;8.346;2023-02-28T11:38:14;4.10;92.90
5055;DHT22;13829;48.990;8.346;2023-02-28T11:40:47;4.30;92.70
5055;DHT22;13829;48.990;8.346;2023-02-28T11:43:38;4.20;92.40
5055;DHT22;13829;48.990;8.346;2023-02-28T11:46:21;4.20;92.30
5055;DHT22;13829;48.990;8.346;2023-02-28T11:49:02;4.20;92.60
5055;DHT22;13829;48.990;8.346;2023-02-28T11:51:47;4.20;92.60
5055;DHT22;13829;48.990;8.346;2023-02-28T11:54:28;4.10;92.70
5055;DHT22;13829;48.990;8.346;2023-02-28T11:57:13;4.20;92.80
5055;DHT22;13829;48.990;8.346;2023-02-28T11:59:58;4.30;92.80
5055;DHT22;13829;48.990;8.346;2023-02-28T12:02:31;4.50;92.40
5055;DHT22;13829;48.990;8.346;2023-02-28T12:05:24;4.60;91.90
5055;DHT22;13829;48.990;8.346;2023-02-28T12:08:06;4.70;91.80
5055;DHT22;13829;48.990;8.346;2023-02-28T12:10:56;4.80;91.70
5055;DHT22;13829;48.990;8.346;2023-02-28T12:13:36;4.70;91.70
5055;DHT22;13829;48.990;8.346;2023-02-28T12:16:31;4.90;91.40
5055;DHT22;13829;48.990;8.346;2023-02-28T12:19:20;4.90;90.90
5055;DHT22;13829;48.990;8.346;2023-02-28T12:28:20;5.10;89.20
5055;DHT22;13829;48.990;8.346;2023-02-28T12:30:58;5.40;89.30
5055;DHT22;13829;48.990;8.346;2023-02-28T12:33:33;5.50;88.70
5055;DHT22;13829;48.990;8.346;2023-02-28T12:36:09;5.60;89.50
5055;DHT22;13829;48.990;8.346;2023-02-28T12:38:46;5.70;87.40
5055;DHT22;13829;48.990;8.346;2023-02-28T12:41:19;5.70;87.70
5055;DHT22;13829;48.990;8.346;2023-02-28T12:43:55;5.60;87.40
5055;DHT22;13829;48.990;8.346;2023-02-28T12:46:30;5.50;87.50
5055;DHT22;13829;48.990;8.346;2023-02-28T12:49:06;5.50;88.30
5055;DHT22;13829;48.990;8.346;2023-02-28T12:51:43;6.00;89.00
5055;DHT22;13829;48.990;8.346;2023-02-28T12:54:19;6.10;85.40
5055;DHT22;13829;48.990;8.346;2023-02-28T12:56:56;6.00;85.30
5055;DHT22;13829;48.990;8.346;2023-02-28T12:59:37;6.00;85.00
5055;DHT22;13829;48.990;8.346;2023-02-28T13:02:29;6.10;85.30
5055;DHT22;13829;48.990;8.346;2023-02-28T13:11:33;5.90;84.40
5055;DHT22;13829;48.990;8.346;2023-02-28T13:14:15;5.90;84.00
5055;DHT22;13829;48.990;8.346;2023-02-28T13:17:02;5.80;84.40
5055;DHT22;13829;48.990;8.346;2023-02-28T13:19:38;5.70;85.00
5055;DHT22;13829;48.990;8.346;2023-02-28T13:22:44;5.80;84.10
5055;DHT22;13829;48.990;8.346;2023-02-28T13:25:53;6.00;84.20
5055;DHT22;13829;48.990;8.346;2023-02-28T13:38:16;5.90;83.80
5055;DHT22;13829;48.990;8.346;2023-02-28T13:40:49;5.90;84.00
5055;DHT22;13829;48.990;8.346;2023-02-28T13:43:17;5.80;84.10
5055;DHT22;13829;48.990;8.346;2023-02-28T13:46:11;5.80;84.40
5055;DHT22;13829;48.990;8.346;2023-02-28T13:48:40;6.00;85.60
5055;DHT22;13829;48.990;8.346;2023-02-28T13:51:41;6.00;84.50
5055;DHT22;13829;48.990;8.346;2023-02-28T13:54:32;5.90;85.10
5055;DHT22;13829;48.990;8.346;2023-02-28T13:57:19;5.90;84.80
5055;DHT22;13829;48.990;8.346;2023-02-28T14:00:02;6.10;86.10
5055;DHT22;13829;48.990;8.346;2023-02-28T14:03:05;6.30;84.30
5055;DHT22;13829;48.990;8.346;2023-02-28T14:05:42;6.30;83.90
5055;DHT22;13829;48.990;8.346;2023-02-28T14:08:15;6.20;84.10
5055;DHT22;13829;48.990;8.346;2023-02-28T14:10:49;6.20;84.50
5055;DHT22;13829;48.990;8.346;2023-02-28T14:13:37;6.30;84.00
5055;DHT22;13829;48.990;8.346;2023-02-28T14:16:10;6.30;84.20
5055;DHT22;13829;48.990;8.346;2023-02-28T14:18:41;6.20;83.90
5055;DHT22;13829;48.990;8.346;2023-02-28T14:21:21;6.10;84.30
5055;DHT22;13829;48.990;8.346;2023-02-28T14:27:32;6.00;85.20
5055;DHT22;13829;48.990;8.346;2023-02-28T14:30:48;6.00;85.40
5055;DHT22;13829;48.990;8.346;2023-02-28T14:33:26;5.90;84.90
5055;DHT22;13829;48.990;8.346;2023-02-28T14:36:07;5.90;85.70
5055;DHT22;13829;48.990;8.346;2023-02-28T14:38:43;5.80;84.90
5055;DHT22;13829;48.990;8.346;2023-02-28T14:41:19;5.70;85.80
5055;DHT22;13829;48.990;8.346;2023-02-28T14:43:58;5.80;85.60
5055;DHT22;13829;48.990;8.346;2023-02-28T14:46:35;5.80;85.40
5055;DHT22;13829;48.990;8.346;2023-02-28T14:49:06;6.00;85.40
5055;DHT22;13829;48.990;8.346;2023-02-28T14:51:38;6.00;85.60
5055;DHT22;13829;48.990;8.346;2023-02-28T14:54:05;6.00;85.50
5055;DHT22;13829;48.990;8.346;2023-02-28T14:56:35;6.10;85.90
5055;DHT22;13829;48.990;8.346;2023-02-28T14:59:17;6.00;84.50
5055;DHT22;13829;48.990;8.346;2023-02-28T15:01:50;6.00;84.70
5055;DHT22;13829;48.990;8.346;2023-02-28T15:04:26;5.90;85.10
5055;DHT22;13829;48.990;8.346;2023-02-28T15:07:10;6.00;85.30
5055;DHT22;13829;48.990;8.346;2023-02-28T15:09:39;5.90;85.00
5055;DHT22;13829;48.990;8.346;2023-02-28T15:12:07;5.90;85.30
5055;DHT22;13829;48.990;8.346;2023-02-28T15:14:42;5.90;85.30
5055;DHT22;13829;48.990;8.346;2023-02-28T15:17:17;5.80;85.30
5055;DHT22;13829;48.990;8.346;2023-02-28T15:19:52;5.80;85.50
5055;DHT22;13829;48.990;8.346;2023-02-28T15:22:24;5.80;85.00
5055;DHT22;13829;48.990;8.346;2023-02-28T15:24:56;5.80;84.70
5055;DHT22;13829;48.990;8.346;2023-02-28T15:27:28;5.90;84.70
5055;DHT22;13829;48.990;8.346;2023-02-28T15:30:01;6.00;84.10
5055;DHT22;13829;48.990;8.346;2023-02-28T15:32:34;5.90;84.50
5055;DHT22;13829;48.990;8.346;2023-02-28T15:35:19;5.80;84.50
5055;DHT22;13829;48.990;8.346;2023-02-28T15:37:55;5.80;84.70
5055;DHT22;13829;48.990;8.346;2023-02-28T15:40:26;5.90;84.90
5055;DHT22;13829;48.990;8.346;2023-02-28T15:42:59;5.90;84.80
5055;DHT22;13829;48.990;8.346;2023-02-28T15:45:37;6.00;85.20
5055;DHT22;13829;48.990;8.346;2023-02-28T15:48:16;6.00;84.60
5055;DHT22;13829;48.990;8.346;2023-02-28T15:50:49;6.00;84.80
5055;DHT22;13829;48.990;8.346;2023-02-28T15:53:22;5.90;85.00
5055;DHT22;13829;48.990;8.346;2023-02-28T15:55:56;5.90;85.40
5055;DHT22;13829;48.990;8.346;2023-02-28T15:58:27;5.90;85.30
5055;DHT22;13829;48.990;8.346;2023-02-28T16:01:21;5.90;85.00
5055;DHT22;13829;48.990;8.346;2023-02-28T16:03:54;5.80;85.30
5055;DHT22;13829;48.990;8.346;2023-02-28T16:06:38;5.80;85.30
5055;DHT22;13829;48.990;8.346;2023-02-28T16:09:10;5.80;85.50
5055;DHT22;13829;48.990;8.346;2023-02-28T16:11:42;5.80;85.80
5055;DHT22;13829;48.990;8.346;2023-02-28T16:14:14;5.80;85.90
5055;DHT22;13829;48.990;8.346;2023-02-28T16:16:46;5.80;85.30
5055;DHT22;13829;48.990;8.346;2023-02-28T16:19:15;5.70;85.20
5055;DHT22;13829;48.990;8.346;2023-02-28T16:21:42;5.70;85.60
5055;DHT22;13829;48.990;8.346;2023-02-28T16:24:11;5.60;85.80
5055;DHT22;13829;48.990;8.346;2023-02-28T16:26:40;5.50;86.50
5055;DHT22;13829;48.990;8.346;2023-02-28T16:29:13;5.60;86.00
5055;DHT22;13829;48.990;8.346;2023-02-28T16:31:47;5.70;86.00
5055;DHT22;13829;48.990;8.346;2023-02-28T16:34:14;5.50;86.20
5055;DHT22;13829;48.990;8.346;2023-02-28T16:36:42;5.50;86.10
5055;DHT22;13829;48.990;8.346;2023-02-28T16:39:14;5.40;86.50
5055;DHT22;13829;48.990;8.346;2023-02-28T16:41:42;5.40;86.70
5055;DHT22;13829;48.990;8.346;2023-02-28T16:44:14;5.30;86.90
5055;DHT22;13829;48.990;8.346;2023-02-28T16:46:52;5.30;87.10
5055;DHT22;13829;48.990;8.346;2023-02-28T16:49:19;5.20;87.70
5055;DHT22;13829;48.990;8.346;2023-02-28T16:51:48;5.10;87.80
5055;DHT22;13829;48.990;8.346;2023-02-28T16:54:15;5.20;88.10
5055;DHT22;13829;48.990;8.346;2023-02-28T16:56:45;5.10;87.90
5055;DHT22;13829;48.990;8.346;2023-02-28T16:59:21;5.00;88.10
5055;DHT22;13829;48.990;8.346;2023-02-28T17:01:49;5.10;88.00
5055;DHT22;13829;48.990;8.346;2023-02-28T17:04:18;5.00;88.30
5055;DHT22;13829;48.990;8.346;2023-02-28T17:06:45;5.00;88.40